Time;durP1;ratioP1;P1;durP2;ratioP2;P2;SDS_P1;SDS_P2;PMS_P1;PMS_P2;Temp;Humidity;BMP_temperature;BMP_pressure;BME280_temperature;BME280_humidity;BME280_pressure;Samples;Min_cycle;Max_cycle;Signal;HPM_P1;HPM_P2
2023/11/20 00:02:16;;;;;;;56.33;17.02;;;10.60;99.90;;;;;;5060067;28;20032;-75
2023/11/20 00:04:42;;;;;;;62.97;17.58;;;10.70;99.90;;;;;;5059793;28;20028;-72
2023/11/20 00:07:07;;;;;;;65.63;17.13;;;10.60;99.90;;;;;;5060879;28;20056;-74
2023/11/20 00:09:33;;;;;;;60.30;17.05;;;10.60;99.90;;;;;;5060971;28;20039;-72
2023/11/20 00:11:59;;;;;;;74.75;18.02;;;10.60;99.90;;;;;;5061097;28;20013;-75
2023/11/20 00:14:25;;;;;;;74.45;18.27;;;10.60;99.90;;;;;;5061033;28;20025;-73
2023/11/20 00:16:52;;;;;;;72.30;17.70;;;10.60;99.90;;;;;;5059262;28;20608;-72
2023/11/20 00:19:18;;;;;;;63.08;17.30;;;10.60;99.90;;;;;;5060406;28;20039;-72
2023/11/20 00:21:44;;;;;;;74.97;16.65;;;10.70;99.90;;;;;;5060805;28;20029;-74
2023/11/20 00:24:10;;;;;;;62.28;14.75;;;10.60;99.90;;;;;;5059997;28;20031;-74
2023/11/20 00:26:36;;;;;;;66.40;16.40;;;10.60;99.90;;;;;;5060995;28;20040;-75
2023/11/20 00:29:04;;;;;;;66.10;17.13;;;10.70;99.90;;;;;;5060752;28;20021;-73
2023/11/20 00:31:30;;;;;;;62.80;16.10;;;10.60;99.90;;;;;;5060469;28;20076;-73
2023/11/20 00:33:55;;;;;;;57.17;15.45;;;10.60;99.90;;;;;;5059631;28;20053;-73
2023/11/20 00:36:21;;;;;;;62.35;15.60;;;10.60;99.90;;;;;;5060455;28;20410;-73
2023/11/20 00:38:47;;;;;;;62.95;16.08;;;10.60;99.90;;;;;;5059415;28;20083;-73
2023/11/20 00:41:13;;;;;;;75.20;17.40;;;10.60;99.90;;;;;;5060529;28;20071;-72
2023/11/20 00:43:40;;;;;;;47.72;14.40;;;10.60;99.90;;;;;;5060410;28;20462;-72
2023/11/20 00:46:06;;;;;;;57.22;15.10;;;10.60;99.90;;;;;;5058863;28;20107;-74
2023/11/20 00:48:32;;;;;;;51.80;15.00;;;10.70;99.90;;;;;;5061914;28;20052;-73
2023/11/20 00:50:58;;;;;;;43.05;13.73;;;10.60;99.90;;;;;;5063931;28;20430;-72
2023/11/20 00:53:24;;;;;;;48.80;14.15;;;10.60;99.90;;;;;;5064373;28;20107;-74
2023/11/20 00:55:50;;;;;;;57.55;15.68;;;10.60;99.90;;;;;;5064506;28;20036;-74
2023/11/20 00:58:16;;;;;;;58.08;15.55;;;10.60;99.90;;;;;;5063381;28;20032;-73
2023/11/20 01:00:41;;;;;;;70.78;15.98;;;10.60;99.90;;;;;;5064006;28;20037;-75
2023/11/20 01:03:07;;;;;;;60.15;16.05;;;10.60;99.90;;;;;;5064058;28;20028;-72
2023/11/20 01:05:33;;;;;;;54.63;15.30;;;10.60;99.90;;;;;;5063791;28;20027;-75
2023/11/20 01:07:59;;;;;;;65.60;15.85;;;10.60;99.90;;;;;;5064233;28;20017;-73
2023/11/20 01:10:25;;;;;;;67.70;15.75;;;10.60;99.90;;;;;;5063909;28;20070;-72
2023/11/20 01:12:51;;;;;;;57.17;14.93;;;10.50;99.90;;;;;;5063575;28;20033;-74
2023/11/20 01:15:16;;;;;;;58.35;15.25;;;10.50;99.90;;;;;;5063851;28;20453;-72
2023/11/20 01:17:42;;;;;;;84.30;15.43;;;10.60;99.90;;;;;;5063600;28;20032;-73
2023/11/20 01:20:10;;;;;;;61.17;16.25;;;10.60;99.90;;;;;;5060699;28;20059;-74
2023/11/20 01:22:36;;;;;;;91.05;17.60;;;10.60;99.90;;;;;;5063425;28;20037;-74
2023/11/20 01:25:01;;;;;;;49.45;12.70;;;10.60;99.90;;;;;;5062069;28;20037;-75
2023/11/20 01:27:27;;;;;;;30.65;10.57;;;10.50;99.90;;;;;;5061970;28;20114;-75
2023/11/20 01:29:52;;;;;;;30.58;9.23;;;10.60;99.90;;;;;;5062077;28;20025;-74
2023/11/20 01:32:18;;;;;;;20.50;7.28;;;10.50;99.90;;;;;;5063285;28;20025;-75
2023/11/20 01:34:44;;;;;;;19.75;6.88;;;10.50;99.90;;;;;;5063455;28;20025;-73
2023/11/20 01:37:09;;;;;;;17.33;5.65;;;10.50;99.90;;;;;;5061886;28;20060;-74
2023/11/20 01:39:39;;;;;;;17.80;5.95;;;10.50;99.90;;;;;;5063225;28;20017;-74
2023/11/20 01:42:05;;;;;;;18.10;5.75;;;10.50;99.90;;;;;;5061636;28;20052;-74
2023/11/20 01:44:31;;;;;;;18.30;6.28;;;10.50;99.90;;;;;;5062503;28;20051;-73
2023/11/20 01:46:58;;;;;;;17.80;6.22;;;10.60;99.90;;;;;;5061898;28;20029;-73
2023/11/20 01:49:24;;;;;;;16.52;5.47;;;10.60;99.90;;;;;;5063361;28;20189;-77
2023/11/20 01:51:50;;;;;;;17.70;6.20;;;10.60;99.90;;;;;;5062958;28;20021;-73
2023/11/20 01:54:17;;;;;;;22.10;6.40;;;10.60;99.90;;;;;;5062867;28;20021;-77
2023/11/20 01:56:43;;;;;;;16.63;6.15;;;10.60;99.90;;;;;;5063096;28;20049;-74
2023/11/20 01:59:11;;;;;;;13.38;5.65;;;10.50;99.90;;;;;;5062801;28;20017;-73
2023/11/20 02:01:36;;;;;;;18.50;7.05;;;10.60;99.90;;;;;;5060827;28;20041;-74
2023/11/20 02:04:03;;;;;;;17.80;7.20;;;10.60;99.90;;;;;;5062854;28;20028;-75
2023/11/20 02:06:29;;;;;;;22.90;8.23;;;10.60;99.90;;;;;;5060761;28;20036;-73
2023/11/20 02:08:56;;;;;;;24.48;7.68;;;10.70;99.90;;;;;;5060910;28;20496;-72
2023/11/20 02:11:23;;;;;;;20.75;8.30;;;10.60;99.90;;;;;;5062042;28;20040;-73
2023/11/20 02:13:51;;;;;;;22.13;8.45;;;10.70;99.90;;;;;;5061700;28;20055;-75
2023/11/20 02:16:17;;;;;;;28.63;9.40;;;10.60;99.90;;;;;;5062134;28;20024;-73
2023/11/20 02:18:43;;;;;;;24.08;9.45;;;10.70;99.90;;;;;;5060998;28;20025;-73
2023/11/20 02:21:08;;;;;;;27.17;9.52;;;10.60;99.90;;;;;;5060599;28;20104;-74
2023/11/20 02:23:34;;;;;;;31.35;10.63;;;10.70;99.90;;;;;;5062614;28;20047;-74
2023/11/20 02:26:18;;;;;;;35.92;12.20;;;10.70;99.90;;;;;;5062374;28;20442;-75
2023/11/20 02:28:58;;;;;;;40.17;12.27;;;10.70;99.90;;;;;;5060540;28;20029;-75
2023/11/20 02:31:23;;;;;;;37.05;12.68;;;10.70;99.90;;;;;;5062281;28;20033;-74
2023/11/20 02:33:49;;;;;;;35.30;12.18;;;10.70;99.90;;;;;;5060703;28;20075;-73
2023/11/20 02:36:14;;;;;;;37.47;11.98;;;10.70;99.90;;;;;;5062061;28;20078;-73
2023/11/20 02:38:41;;;;;;;42.28;12.93;;;10.70;99.90;;;;;;5062348;28;20032;-72
2023/11/20 02:41:07;;;;;;;45.47;13.00;;;10.70;99.90;;;;;;5061173;28;20048;-74
2023/11/20 02:43:38;;;;;;;32.10;11.48;;;10.70;99.90;;;;;;5062102;28;20527;-74
2023/11/20 02:46:04;;;;;;;38.38;12.52;;;10.70;99.90;;;;;;5061146;28;20037;-74
2023/11/20 02:48:30;;;;;;;37.85;12.90;;;10.80;99.90;;;;;;5062065;28;20091;-73
2023/11/20 02:50:56;;;;;;;40.53;12.88;;;10.80;99.90;;;;;;5062093;28;20108;-74
2023/11/20 02:53:21;;;;;;;41.55;13.38;;;10.80;99.90;;;;;;5061890;28;20035;-72
2023/11/20 02:55:49;;;;;;;35.67;11.65;;;10.80;99.90;;;;;;5061807;28;20025;-74
2023/11/20 02:58:14;;;;;;;38.58;12.48;;;10.80;99.90;;;;;;5061345;28;20088;-73
2023/11/20 03:00:40;;;;;;;40.50;11.75;;;10.80;99.90;;;;;;5061321;28;20028;-73
2023/11/20 03:03:06;;;;;;;36.97;11.73;;;10.80;99.90;;;;;;5061301;28;20037;-73
2023/11/20 03:05:33;;;;;;;28.08;10.02;;;10.80;99.90;;;;;;5061831;28;21553;-73
2023/11/20 03:07:58;;;;;;;38.55;12.15;;;10.80;99.90;;;;;;5061517;28;20032;-74
2023/11/20 03:10:26;;;;;;;39.85;12.43;;;10.80;99.90;;;;;;5059976;28;20103;-73
2023/11/20 03:12:51;;;;;;;38.05;11.15;;;10.90;99.90;;;;;;5060913;28;20057;-71
2023/11/20 03:15:18;;;;;;;32.28;11.07;;;10.90;99.90;;;;;;5061597;28;20390;-76
2023/11/20 03:17:43;;;;;;;33.83;11.07;;;10.80;99.90;;;;;;5061278;28;20037;-73
2023/11/20 03:20:11;;;;;;;31.20;11.40;;;10.80;99.90;;;;;;5061407;28;20021;-73
2023/11/20 03:22:37;;;;;;;33.03;11.82;;;10.90;99.90;;;;;;5061415;28;20052;-75
2023/11/20 03:25:03;;;;;;;34.15;11.30;;;10.90;99.90;;;;;;5059838;28;20025;-74
2023/11/20 03:27:28;;;;;;;30.33;10.93;;;10.90;99.90;;;;;;5061714;28;20036;-72
2023/11/20 03:29:54;;;;;;;37.53;12.05;;;10.80;99.90;;;;;;5061263;28;20025;-72
2023/11/20 03:32:20;;;;;;;33.80;11.32;;;10.80;99.90;;;;;;5060892;28;20029;-73
2023/11/20 03:34:45;;;;;;;32.13;10.50;;;10.80;99.90;;;;;;5061079;28;20067;-74
2023/11/20 03:37:11;;;;;;;30.08;10.68;;;10.80;99.90;;;;;;5061126;28;20164;-72
2023/11/20 03:39:36;;;;;;;28.52;10.07;;;10.80;99.90;;;;;;5061515;28;20025;-73
2023/11/20 03:42:02;;;;;;;33.17;10.70;;;10.80;99.90;;;;;;5060987;28;20095;-74
2023/11/20 03:44:28;;;;;;;27.85;10.30;;;10.80;99.90;;;;;;5060155;28;20025;-73
2023/11/20 03:46:54;;;;;;;32.35;10.05;;;10.80;99.90;;;;;;5060087;28;20043;-73
2023/11/20 03:49:20;;;;;;;34.28;10.10;;;10.90;99.90;;;;;;5060815;28;20548;-73
2023/11/20 03:51:45;;;;;;;29.63;10.73;;;10.80;99.90;;;;;;5060344;28;20077;-73
2023/11/20 03:54:11;;;;;;;28.30;9.80;;;10.80;99.90;;;;;;5061126;28;20084;-72
2023/11/20 03:56:37;;;;;;;33.22;10.07;;;10.80;99.90;;;;;;5059671;28;21050;-75
2023/11/20 03:59:02;;;;;;;40.03;10.90;;;10.90;99.90;;;;;;5060847;28;20033;-75
2023/11/20 04:01:28;;;;;;;26.50;10.13;;;10.80;99.90;;;;;;5059890;28;20067;-74
2023/11/20 04:03:53;;;;;;;31.20;10.52;;;10.80;99.90;;;;;;5061239;28;20093;-74
2023/11/20 04:06:19;;;;;;;29.13;10.10;;;10.80;99.90;;;;;;5060685;28;20052;-73
2023/11/20 04:08:44;;;;;;;30.33;10.27;;;10.90;99.90;;;;;;5061109;28;20036;-74
2023/11/20 04:11:10;;;;;;;31.65;10.18;;;10.90;99.90;;;;;;5061072;28;20084;-74
2023/11/20 04:13:36;;;;;;;30.65;10.30;;;10.80;99.90;;;;;;5059374;28;20116;-73
2023/11/20 04:16:04;;;;;;;35.25;10.85;;;10.90;99.90;;;;;;5061150;28;20025;-73
2023/11/20 04:18:30;;;;;;;39.00;10.73;;;10.80;99.90;;;;;;5060440;28;20088;-74
2023/11/20 04:20:57;;;;;;;33.50;10.40;;;10.90;99.90;;;;;;5060938;28;20037;-74
2023/11/20 04:23:22;;;;;;;39.40;11.82;;;10.90;99.90;;;;;;5061079;28;20053;-76
2023/11/20 04:25:49;;;;;;;32.47;10.73;;;10.90;99.90;;;;;;5064246;28;20021;-74
2023/11/20 04:28:14;;;;;;;29.05;10.27;;;10.80;99.90;;;;;;5064094;28;20021;-74
2023/11/20 04:30:41;;;;;;;26.48;9.90;;;10.90;99.90;;;;;;5064817;28;20058;-73
2023/11/20 04:33:06;;;;;;;28.48;10.05;;;10.90;99.90;;;;;;5064342;28;20060;-77
2023/11/20 04:35:32;;;;;;;25.90;9.93;;;10.90;99.90;;;;;;5064769;28;20029;-74
2023/11/20 04:37:58;;;;;;;25.05;9.18;;;10.90;99.90;;;;;;5064723;28;20044;-73
2023/11/20 04:40:27;;;;;;;26.45;9.93;;;10.90;99.90;;;;;;5063789;28;20044;-75
2023/11/20 04:42:53;;;;;;;26.95;9.73;;;10.90;99.90;;;;;;5064620;28;20064;-74
2023/11/20 04:45:18;;;;;;;28.55;8.82;;;10.80;99.90;;;;;;5064039;28;20102;-73
2023/11/20 04:47:44;;;;;;;24.90;8.70;;;10.90;99.90;;;;;;5062907;28;20101;-74
2023/11/20 04:50:09;;;;;;;27.27;8.85;;;10.90;99.90;;;;;;5062815;28;20085;-74
2023/11/20 04:52:36;;;;;;;36.05;9.23;;;10.90;99.90;;;;;;5064044;28;20028;-74
2023/11/20 04:55:05;;;;;;;21.95;8.63;;;10.90;99.90;;;;;;5063565;28;20013;-75
2023/11/20 04:57:31;;;;;;;19.70;7.10;;;10.90;99.90;;;;;;5063885;28;20021;-74
2023/11/20 04:59:57;;;;;;;19.80;7.55;;;10.90;99.90;;;;;;5059603;28;20092;-73
2023/11/20 05:02:26;;;;;;;26.88;7.97;;;10.90;99.90;;;;;;5061649;28;20033;-72
2023/11/20 05:04:52;;;;;;;15.40;6.20;;;10.90;99.90;;;;;;5063662;28;20029;-76
2023/11/20 05:07:18;;;;;;;19.40;6.78;;;10.90;99.90;;;;;;5063130;28;20112;-75
2023/11/20 05:09:43;;;;;;;19.38;6.28;;;10.90;99.90;;;;;;5064021;28;20389;-74
2023/11/20 05:12:09;;;;;;;21.20;7.38;;;10.90;99.90;;;;;;5063910;28;20029;-74
2023/11/20 05:14:35;;;;;;;14.57;6.57;;;10.90;99.90;;;;;;5061667;28;20021;-75
2023/11/20 05:17:00;;;;;;;17.50;6.53;;;10.90;99.90;;;;;;5063992;28;20075;-76
2023/11/20 05:19:26;;;;;;;22.88;7.40;;;11.00;99.90;;;;;;5062353;28;20028;-75
2023/11/20 05:21:52;;;;;;;27.63;6.93;;;11.00;99.90;;;;;;5063235;28;20067;-75
2023/11/20 05:24:18;;;;;;;17.23;6.50;;;10.90;99.90;;;;;;5063251;28;20020;-75
2023/11/20 05:26:43;;;;;;;16.42;5.85;;;10.90;99.90;;;;;;5063560;28;20080;-75
2023/11/20 05:29:11;;;;;;;14.95;5.65;;;10.90;99.90;;;;;;5063112;28;20051;-75
2023/11/20 05:31:37;;;;;;;20.67;5.85;;;10.90;99.90;;;;;;5063385;28;20014;-77
2023/11/20 05:34:03;;;;;;;13.00;5.45;;;10.90;99.90;;;;;;5061799;28;20029;-75
2023/11/20 05:36:28;;;;;;;12.40;5.18;;;10.90;99.90;;;;;;5063325;28;20036;-75
2023/11/20 05:38:55;;;;;;;15.07;4.63;;;10.80;99.90;;;;;;5062283;28;20020;-74
2023/11/20 05:41:21;;;;;;;12.18;5.10;;;10.90;99.90;;;;;;5061520;28;20538;-75
2023/11/20 05:43:47;;;;;;;8.85;4.28;;;10.90;99.90;;;;;;5061725;28;20040;-74
2023/11/20 05:46:13;;;;;;;10.40;4.43;;;10.90;99.90;;;;;;5063043;28;20101;-77
2023/11/20 05:48:39;;;;;;;11.38;5.00;;;10.90;99.90;;;;;;5062533;28;20021;-75
2023/11/20 05:51:04;;;;;;;11.25;4.75;;;10.90;99.90;;;;;;5063067;28;20123;-76
2023/11/20 05:53:30;;;;;;;12.13;4.85;;;10.90;99.90;;;;;;5062570;28;20036;-74
2023/11/20 05:55:56;;;;;;;16.90;5.80;;;10.90;99.90;;;;;;5062384;28;20676;-75
2023/11/20 05:58:22;;;;;;;11.10;5.03;;;10.90;99.90;;;;;;5062937;28;20024;-74
2023/11/20 06:00:48;;;;;;;15.07;5.80;;;10.90;99.90;;;;;;5057516;28;20088;-75
2023/11/20 06:03:13;;;;;;;11.57;5.13;;;10.90;99.90;;;;;;5059346;28;20031;-77
2023/11/20 06:05:39;;;;;;;11.25;4.65;;;10.90;99.90;;;;;;5062655;28;20025;-75
2023/11/20 06:08:05;;;;;;;15.30;5.32;;;10.90;99.90;;;;;;5060812;28;20056;-74
2023/11/20 06:10:30;;;;;;;14.50;4.60;;;11.00;99.90;;;;;;5060717;28;20041;-75
2023/11/20 06:12:56;;;;;;;20.90;5.25;;;10.90;99.90;;;;;;5062413;28;20051;-75
2023/11/20 06:15:21;;;;;;;16.58;5.32;;;10.90;99.90;;;;;;5062110;28;20047;-73
2023/11/20 06:17:47;;;;;;;14.75;4.25;;;10.90;99.90;;;;;;5059146;28;20044;-76
2023/11/20 06:20:13;;;;;;;13.75;4.45;;;10.80;99.90;;;;;;5060630;28;20029;-75
2023/11/20 06:22:41;;;;;;;12.60;4.65;;;11.00;99.90;;;;;;5059335;28;20035;-75
2023/11/20 06:25:07;;;;;;;12.75;5.05;;;10.90;99.90;;;;;;5059110;28;20017;-75
2023/11/20 06:27:33;;;;;;;19.35;5.75;;;11.00;99.90;;;;;;5058797;28;20119;-75
2023/11/20 06:29:59;;;;;;;15.23;6.28;;;11.00;99.90;;;;;;5060553;28;20086;-77
2023/11/20 06:32:24;;;;;;;16.30;5.93;;;11.00;99.90;;;;;;5061635;28;20783;-77
2023/11/20 06:34:50;;;;;;;16.35;5.68;;;11.00;99.90;;;;;;5060889;28;20036;-76
2023/11/20 06:37:16;;;;;;;14.98;5.78;;;11.00;99.90;;;;;;5060074;28;20025;-76
2023/11/20 06:39:42;;;;;;;16.00;5.22;;;10.90;99.90;;;;;;5060622;28;20036;-75
2023/11/20 06:42:08;;;;;;;12.15;5.53;;;11.00;99.90;;;;;;5061327;28;20224;-76
2023/11/20 06:44:38;;;;;;;12.13;4.97;;;11.00;99.90;;;;;;5058444;28;20048;-75
2023/11/20 06:47:07;;;;;;;12.85;5.03;;;11.00;99.90;;;;;;5061233;28;20513;-76
2023/11/20 06:49:39;;;;;;;13.88;5.32;;;10.90;99.90;;;;;;5060151;28;20021;-76
2023/11/20 06:52:05;;;;;;;14.48;5.10;;;11.00;99.90;;;;;;5059664;28;20037;-76
2023/11/20 06:54:30;;;;;;;20.25;5.60;;;11.00;99.90;;;;;;5059543;28;20120;-76
2023/11/20 06:56:56;;;;;;;14.82;5.18;;;11.00;99.90;;;;;;5060354;28;20027;-76
2023/11/20 06:59:22;;;;;;;14.88;5.03;;;11.00;99.90;;;;;;5057458;28;20040;-74
2023/11/20 07:01:47;;;;;;;10.45;4.65;;;11.00;99.90;;;;;;5059419;28;20470;-75
2023/11/20 07:04:15;;;;;;;13.60;4.25;;;11.00;99.90;;;;;;5061886;28;20040;-75
2023/11/20 07:06:43;;;;;;;8.43;3.65;;;11.00;99.90;;;;;;5058521;28;20081;-74
2023/11/20 07:09:15;;;;;;;10.70;4.05;;;11.00;99.90;;;;;;5057581;28;20103;-76
2023/11/20 07:11:41;;;;;;;15.90;4.60;;;11.00;99.90;;;;;;5059345;28;20135;-75
2023/11/20 07:14:10;;;;;;;12.20;4.15;;;11.00;99.90;;;;;;5058612;28;20028;-74
2023/11/20 07:16:37;;;;;;;12.65;4.05;;;11.00;99.90;;;;;;5059193;28;20025;-76
2023/11/20 07:19:04;;;;;;;12.20;3.83;;;11.00;99.90;;;;;;5056725;28;20100;-78
2023/11/20 07:21:29;;;;;;;13.40;3.63;;;11.00;99.90;;;;;;5058406;28;20037;-76
2023/11/20 07:23:58;;;;;;;19.48;4.82;;;11.00;99.90;;;;;;5059037;28;20044;-75
2023/11/20 07:26:25;;;;;;;12.13;4.38;;;11.00;99.90;;;;;;5060478;28;20628;-75
2023/11/20 07:28:51;;;;;;;16.13;5.22;;;11.10;99.90;;;;;;5057380;28;20052;-76
2023/11/20 07:31:31;;;;;;;16.20;4.85;;;11.10;99.90;;;;;;5058173;28;20611;-75
2023/11/20 07:33:57;;;;;;;126.22;8.55;;;11.10;99.90;;;;;;5056719;28;20500;-75
2023/11/20 07:36:24;;;;;;;20.00;5.15;;;11.10;99.90;;;;;;5060257;28;20029;-75
2023/11/20 07:38:50;;;;;;;86.28;8.45;;;11.10;99.90;;;;;;5060470;28;20084;-76
2023/11/20 07:41:16;;;;;;;54.88;8.05;;;10.90;99.90;;;;;;5058194;28;20087;-76
2023/11/20 07:43:42;;;;;;;65.30;5.57;;;11.10;99.90;;;;;;5059453;28;20027;-79
2023/11/20 07:46:09;;;;;;;54.55;4.82;;;11.10;99.90;;;;;;5059067;28;20404;-76
2023/11/20 07:48:35;;;;;;;21.40;4.60;;;11.10;99.90;;;;;;5060479;28;20018;-78
2023/11/20 07:51:01;;;;;;;21.90;4.45;;;11.10;99.90;;;;;;5058911;28;20027;-78
2023/11/20 07:53:27;;;;;;;17.40;4.22;;;11.10;99.90;;;;;;5058280;28;20056;-77
2023/11/20 07:55:53;;;;;;;27.15;5.22;;;11.10;99.90;;;;;;5060875;28;20021;-77
2023/11/20 07:58:18;;;;;;;21.25;5.10;;;11.10;99.90;;;;;;5063294;28;20028;-76
2023/11/20 08:00:45;;;;;;;12.48;4.28;;;11.10;99.90;;;;;;5061494;28;20093;-76
2023/11/20 08:03:11;;;;;;;20.05;5.50;;;11.20;99.90;;;;;;5060767;28;20029;-76
2023/11/20 08:05:36;;;;;;;16.25;3.95;;;11.10;99.90;;;;;;5060959;28;20138;-76
2023/11/20 08:08:02;;;;;;;8.50;3.20;;;11.10;99.90;;;;;;5063170;28;20024;-78
2023/11/20 08:10:28;;;;;;;12.57;3.30;;;11.10;99.90;;;;;;5062961;28;20025;-75
2023/11/20 08:12:53;;;;;;;3.67;1.42;;;11.10;99.90;;;;;;5062743;28;20033;-76
2023/11/20 08:15:19;;;;;;;5.18;1.60;;;11.10;99.90;;;;;;5061623;28;20064;-77
2023/11/20 08:17:45;;;;;;;4.28;1.73;;;11.10;99.90;;;;;;5062176;28;20081;-76
2023/11/20 08:20:11;;;;;;;9.02;1.70;;;11.20;99.90;;;;;;5056895;28;20036;-75
2023/11/20 08:22:38;;;;;;;8.80;1.58;;;11.10;99.90;;;;;;5055172;28;20049;-76
2023/11/20 08:25:04;;;;;;;5.15;1.50;;;11.20;99.90;;;;;;5063259;28;20056;-77
2023/11/20 08:27:30;;;;;;;7.75;1.50;;;11.20;99.90;;;;;;5061000;28;20036;-76
2023/11/20 08:29:55;;;;;;;15.90;1.92;;;11.20;99.90;;;;;;5064550;28;20043;-77
2023/11/20 08:32:21;;;;;;;10.90;1.58;;;11.20;99.90;;;;;;5063151;28;20096;-75
2023/11/20 08:34:46;;;;;;;41.75;2.63;;;11.20;99.90;;;;;;5064424;28;20029;-75
2023/11/20 08:37:13;;;;;;;17.80;1.95;;;11.10;99.90;;;;;;5060928;28;20478;-76
2023/11/20 08:39:39;;;;;;;8.90;1.83;;;11.10;99.90;;;;;;5061969;28;20029;-76
2023/11/20 08:42:05;;;;;;;16.63;2.20;;;11.20;99.90;;;;;;5057617;28;20060;-75
2023/11/20 08:44:33;;;;;;;15.43;2.67;;;11.10;99.90;;;;;;5062569;28;20032;-76
2023/11/20 08:46:59;;;;;;;19.73;2.85;;;11.10;99.90;;;;;;5061898;28;20037;-76
2023/11/20 08:49:26;;;;;;;24.60;2.60;;;11.10;99.90;;;;;;5063056;28;20029;-77
2023/11/20 08:51:52;;;;;;;14.07;2.13;;;11.10;99.90;;;;;;5061965;28;20064;-76
2023/11/20 08:54:18;;;;;;;16.90;2.78;;;11.10;99.90;;;;;;5059565;28;20021;-75
2023/11/20 08:56:46;;;;;;;10.48;2.40;;;11.10;99.90;;;;;;5053443;28;20033;-76
2023/11/20 08:59:12;;;;;;;7.85;3.00;;;11.10;99.90;;;;;;5060692;28;20021;-76
2023/11/20 09:01:38;;;;;;;18.95;3.08;;;11.10;99.90;;;;;;5060564;28;20086;-78
2023/11/20 09:04:05;;;;;;;17.27;3.97;;;11.10;99.90;;;;;;5060078;28;20593;-77
2023/11/20 09:06:32;;;;;;;10.02;3.67;;;11.10;99.90;;;;;;5061496;28;20040;-77
2023/11/20 09:08:58;;;;;;;20.13;4.25;;;11.10;99.90;;;;;;5060558;28;20791;-76
2023/11/20 09:11:24;;;;;;;9.60;3.40;;;11.20;99.90;;;;;;5061814;28;20021;-76
2023/11/20 09:13:53;;;;;;;5.32;2.65;;;11.20;99.90;;;;;;5060049;28;20079;-75
2023/11/20 09:16:20;;;;;;;7.93;2.50;;;11.20;99.90;;;;;;5061567;28;20580;-76
2023/11/20 09:18:46;;;;;;;3.47;2.10;;;11.20;99.90;;;;;;5059713;28;20021;-76
2023/11/20 09:21:13;;;;;;;7.03;1.52;;;11.20;99.90;;;;;;5060279;28;20116;-76
2023/11/20 09:23:38;;;;;;;5.65;1.90;;;11.20;99.90;;;;;;5059662;28;20032;-77
2023/11/20 09:26:08;;;;;;;2.95;1.60;;;11.20;99.90;;;;;;5061487;28;20016;-77
2023/11/20 09:28:34;;;;;;;6.85;1.80;;;11.20;99.90;;;;;;5063396;28;20382;-74
2023/11/20 09:31:00;;;;;;;3.05;1.20;;;11.10;99.90;;;;;;5061433;28;20041;-73
2023/11/20 09:33:25;;;;;;;4.85;1.15;;;11.10;99.90;;;;;;5059191;28;20044;-76
2023/11/20 09:35:51;;;;;;;2.75;1.45;;;11.00;99.90;;;;;;5061663;28;20020;-73
2023/11/20 09:38:17;;;;;;;2.75;1.45;;;11.00;99.90;;;;;;5062024;28;20025;-74
2023/11/20 09:40:43;;;;;;;4.53;0.90;;;11.10;99.90;;;;;;5062010;28;20489;-82
2023/11/20 09:43:09;;;;;;;2.50;1.15;;;11.00;99.90;;;;;;5061933;28;20461;-75
2023/11/20 09:45:40;;;;;;;3.67;1.02;;;11.00;99.90;;;;;;5061497;28;20063;-81
2023/11/20 09:48:07;;;;;;;1.58;1.00;;;11.00;99.90;;;;;;5062910;28;20052;-75
2023/11/20 09:50:36;;;;;;;2.03;0.93;;;11.00;99.90;;;;;;5063294;28;20078;-73
2023/11/20 09:53:02;;;;;;;2.25;1.60;;;11.00;99.90;;;;;;5059912;28;20029;-74
2023/11/20 09:55:27;;;;;;;5.35;1.88;;;11.00;99.90;;;;;;5063086;28;20021;-78
2023/11/20 09:57:53;;;;;;;3.20;2.50;;;11.00;99.90;;;;;;5061291;28;20028;-77
2023/11/20 10:00:21;;;;;;;4.75;2.20;;;10.90;99.90;;;;;;5056834;28;20041;-71
2023/11/20 10:02:49;;;;;;;4.63;2.40;;;11.00;99.90;;;;;;5058655;28;20036;-72
2023/11/20 10:05:26;;;;;;;5.88;2.20;;;11.00;99.90;;;;;;5059815;28;20036;-75
2023/11/20 10:07:55;;;;;;;4.53;2.60;;;11.00;99.90;;;;;;5059168;28;20025;-74
2023/11/20 10:10:21;;;;;;;5.07;2.60;;;11.00;99.90;;;;;;5060286;28;20039;-75
2023/11/20 10:12:48;;;;;;;5.13;2.85;;;10.90;99.90;;;;;;5061078;28;20024;-70
2023/11/20 10:15:16;;;;;;;4.80;2.70;;;11.00;99.90;;;;;;5059775;28;20037;-72
2023/11/20 10:17:42;;;;;;;6.53;2.83;;;11.00;99.90;;;;;;5060653;28;20057;-71
2023/11/20 10:20:09;;;;;;;4.35;2.67;;;11.00;99.90;;;;;;5060963;28;20037;-73
2023/11/20 10:22:36;;;;;;;6.50;3.10;;;11.00;99.90;;;;;;5060182;28;20470;-74
2023/11/20 10:25:06;;;;;;;6.95;2.63;;;10.90;99.90;;;;;;5062032;28;20029;-73
2023/11/20 10:27:32;;;;;;;6.60;2.05;;;11.00;99.90;;;;;;5062397;28;20024;-76
2023/11/20 10:29:58;;;;;;;3.13;2.15;;;11.00;99.90;;;;;;5061640;28;20025;-74
2023/11/20 10:32:27;;;;;;;3.83;2.42;;;11.00;99.90;;;;;;5060644;28;20041;-74
2023/11/20 10:35:15;;;;;;;5.32;2.08;;;10.90;99.90;;;;;;5060607;28;20020;-73
2023/11/20 10:37:57;;;;;;;3.38;1.42;;;10.90;99.90;;;;;;5060686;28;20497;-73
2023/11/20 10:40:26;;;;;;;4.57;1.80;;;10.90;99.90;;;;;;5058474;28;20061;-75
2023/11/20 10:42:52;;;;;;;2.78;1.88;;;10.90;99.90;;;;;;5054851;28;20040;-77
2023/11/20 10:45:19;;;;;;;5.35;2.00;;;10.90;99.90;;;;;;5051655;28;20053;-77
2023/11/20 10:47:46;;;;;;;3.85;2.17;;;10.80;99.90;;;;;;5058106;28;20033;-74
2023/11/20 10:50:13;;;;;;;9.77;2.00;;;10.80;99.90;;;;;;5061178;28;20029;-73
2023/11/20 10:52:44;;;;;;;7.68;2.50;;;10.80;99.90;;;;;;5057764;28;20037;-78
2023/11/20 10:55:14;;;;;;;9.45;2.35;;;10.80;99.90;;;;;;5056825;28;20084;-74
2023/11/20 10:57:40;;;;;;;5.07;2.20;;;10.80;99.90;;;;;;5059470;28;20025;-75
2023/11/20 11:00:10;;;;;;;3.38;2.38;;;10.80;99.90;;;;;;5061323;28;20111;-79
2023/11/20 11:02:47;;;;;;;5.25;1.90;;;10.80;99.90;;;;;;5058528;28;20190;-72
2023/11/20 11:05:12;;;;;;;4.78;2.35;;;10.80;99.90;;;;;;5056271;28;20033;-75
2023/11/20 11:07:39;;;;;;;5.45;2.33;;;10.80;99.90;;;;;;5061389;28;20025;-77
2023/11/20 11:10:14;;;;;;;3.72;1.85;;;10.70;99.90;;;;;;5061539;28;20871;-77
2023/11/20 11:12:41;;;;;;;9.73;2.70;;;10.70;99.90;;;;;;5057570;28;20059;-75
2023/11/20 11:15:14;;;;;;;6.47;2.42;;;10.80;99.90;;;;;;5056737;28;20059;-74
2023/11/20 11:18:03;;;;;;;6.35;2.65;;;10.70;99.90;;;;;;5059399;28;20060;-72
2023/11/20 11:20:37;;;;;;;12.30;3.10;;;10.70;99.90;;;;;;5060232;28;21362;-72
2023/11/20 11:23:09;;;;;;;9.13;3.17;;;10.70;99.90;;;;;;5061028;28;20028;-74
2023/11/20 11:25:43;;;;;;;16.77;3.88;;;10.70;99.90;;;;;;5058544;28;20033;-74
2023/11/20 11:28:13;;;;;;;10.48;4.05;;;10.70;99.90;;;;;;5059660;28;20037;-72
2023/11/20 11:30:42;;;;;;;12.75;3.95;;;10.70;99.90;;;;;;5057694;28;20037;-72
2023/11/20 11:33:28;;;;;;;16.05;4.25;;;10.70;99.90;;;;;;5060787;28;20051;-73
2023/11/20 11:36:15;;;;;;;14.50;4.05;;;10.70;99.90;;;;;;5057105;28;20025;-79
2023/11/20 11:39:09;;;;;;;16.35;3.83;;;10.70;99.90;;;;;;5059830;28;20029;-75
2023/11/20 11:41:40;;;;;;;16.02;4.20;;;10.70;99.90;;;;;;5059039;28;20052;-73
2023/11/20 11:44:10;;;;;;;13.13;3.95;;;10.70;99.90;;;;;;5058630;28;20045;-72
2023/11/20 11:46:35;;;;;;;14.10;3.83;;;10.70;99.90;;;;;;5061007;28;20036;-75
2023/11/20 11:49:23;;;;;;;15.15;4.43;;;10.60;99.90;;;;;;5061079;28;20036;-74
2023/11/20 11:51:55;;;;;;;24.95;4.85;;;10.70;99.90;;;;;;5059468;28;20032;-74
2023/11/20 11:54:20;;;;;;;24.55;4.75;;;10.70;99.90;;;;;;5061169;28;20032;-69
2023/11/20 11:56:49;;;;;;;21.77;4.85;;;10.70;99.90;;;;;;5056760;28;20382;-72
2023/11/20 11:59:30;;;;;;;22.42;5.13;;;10.70;99.90;;;;;;5059900;28;20107;-72
2023/11/20 12:01:56;;;;;;;25.65;5.55;;;10.70;99.90;;;;;;5059626;28;20032;-71
2023/11/20 12:04:56;;;;;;;31.92;5.70;;;10.70;99.90;;;;;;5060335;28;20060;-73
2023/11/20 12:07:34;;;;;;;30.25;5.60;;;10.70;99.90;;;;;;5048449;28;20044;-72
2023/11/20 12:10:23;;;;;;;24.20;5.28;;;10.70;99.90;;;;;;5059287;28;20029;-75
2023/11/20 12:12:51;;;;;;;22.10;5.10;;;10.70;99.90;;;;;;5060486;28;20060;-77
2023/11/20 12:15:45;;;;;;;22.70;5.15;;;10.70;99.90;;;;;;5059449;28;20032;-76
2023/11/20 12:18:12;;;;;;;;;;;10.70;99.90;;;;;;5057524;28;20068;-74
2023/11/20 12:21:04;;;;;;;26.20;5.13;;;10.70;99.90;;;;;;5057080;28;19915;-73
2023/11/20 12:23:33;;;;;;;22.67;5.30;;;10.70;99.90;;;;;;5055684;28;20049;-74
2023/11/20 12:26:01;;;;;;;33.75;6.03;;;10.60;99.90;;;;;;5058982;28;20079;-72
2023/11/20 12:28:31;;;;;;;40.65;6.43;;;10.60;99.90;;;;;;5060621;28;20029;-76
2023/11/20 12:30:59;;;;;;;45.65;6.43;;;10.70;99.90;;;;;;5059135;28;20029;-71
2023/11/20 12:33:24;;;;;;;32.63;5.28;;;10.70;99.90;;;;;;5059107;28;20036;-75
2023/11/20 12:35:55;;;;;;;32.35;5.13;;;10.50;99.90;;;;;;5057829;28;20191;-71
2023/11/20 12:38:21;;;;;;;21.35;4.88;;;10.70;99.90;;;;;;5058593;28;20028;-75